Nearby METAR Reports

 

KIAG - Niagara Falls, New York, USA
Distance from station: W 12mi, 20km
Updated: 01/21/2020 7:53pm
Clear
Clear
 Wind from WSW
Wind: WSW 14 mph , 22 km/h, Gust: 22 mph , 35 km/h
Temperature: 21°F , -6°C
Wind Chill: 8°F , -13°C
Dew Point: 16°F , -9°C
Humidity: 80%
Barometer: 1030.5 hPa
Clouds: Clear
Visibility: 10 miles , 16 km
2020/01/22 00:53 KIAG 220053Z 24012G19KT 10SM CLR M06/M09 A3043 RMK AO2 SLP324 T10611094
KBUF - Buffalo/Cheektow, New York, USA
Distance from station: S 13mi, 21km
Updated: 01/21/2020 7:54pm
Few Clouds
Few Clouds
 Wind from WSW
Wind: WSW 15 mph , 24 km/h
Temperature: 27°F , -3°C
Wind Chill: 15°F , -9°C
Dew Point: 19°F , -7°C
Humidity: 74%
Barometer: 1030.1 hPa
Clouds: Few Clouds
Visibility: 10 miles , 16 km
Cloud details: Few Clouds 1800 ft
Few Clouds 25000 ft
2020/01/22 00:54 KBUF 220054Z 24013KT 10SM FEW018 FEW250 M03/M07 A3042 RMK AO2 SLP313 T10281072
 
KROC - Rochester, New York, USA
Distance from station: E 51mi, 82km
Updated: 01/21/2020 8:13pm
Partly cloudy
Partly cloudy
 Wind from WSW
Wind: WSW 12 mph , 19 km/h
Temperature: 23°F , -5°C
Wind Chill: 11°F , -12°C
Dew Point: 16°F , -9°C
Humidity: 74%
Barometer: 1030.1 hPa
Clouds: Partly cloudy
Visibility: 10 miles , 16 km
Cloud details: Partly cloudy 2400 ft
2020/01/22 01:13 KROC 220113Z 25010KT 10SM SCT024 M05/M09 A3042 RMK AO2 T10501094
CYSN - St. Catharines A, Ontario, Canada
Distance from station: WNW 25mi, 40km
Updated: 01/21/2020 8:00pm
Partly cloudy
Partly cloudy
 Wind from SW
Wind: SW 13 mph , 20 km/h
Temperature: 23°F , -5°C
Wind Chill: 11°F , -12°C
Dew Point: 14°F , -10°C
Humidity: 68%
Barometer: 1030.8 hPa
Clouds: Partly cloudy
Visibility: 15 miles , 24 km
Cloud details: Partly cloudy 10000 ft
2020/01/22 01:00 CYSN 220100Z 22011KT 15SM SCT100 M05/M10 A3044 RMK AC3 SLP316
 
KOLE - Olean, New York, USA
Distance from station: SSE 63mi, 102km
Updated: 01/21/2020 8:15pm
Overcast
Overcast
 Wind from W
Wind: W 5 mph , 7 km/h
Temperature: 18°F , -8°C
Wind Chill: 11°F , -12°C
Dew Point: 12°F , -11°C
Humidity: 79%
Barometer: 1028.1 hPa
Clouds: Overcast
Visibility: 10 miles , 16 km
Cloud details: Overcast 1400 ft
2020/01/22 01:15 KOLE 220115Z AUTO 27004KT 10SM OVC014 M08/M11 A3036 RMK AO2
KJHW - Jamestown, New York, USA
Distance from station: SSW 74mi, 119km
Updated: 01/21/2020 7:56pm
Overcast
Overcast
 Wind from WSW
Wind: WSW 9 mph , 15 km/h
Temperature: 19°F , -7°C
Wind Chill: 8°F , -13°C
Dew Point: 16°F , -9°C
Humidity: 86%
Barometer: 1029.8 hPa
Clouds: Overcast
Visibility: 10 miles , 16 km
Cloud details: Overcast 1600 ft
2020/01/22 00:56 KJHW 220056Z AUTO 24008KT 10SM OVC016 M07/M09 A3041 RMK AO2 SLP332 T10671094 FZRANO
 
CWWZ - Port Weller (mar, Ontario, Canada
Distance from station: WNW 28mi, 45km
Updated: 01/21/2020 8:00pm

 Wind from SW
Wind: SW 10 mph , 17 km/h
Temperature: 25°F , -4°C
Wind Chill: 15°F , -9°C
Dew Point: 16°F , -9°C
Humidity: 69%
2020/01/22 01:00 CWWZ 220100Z AUTO 23009KT M04/M09 RMK AO1 PK WND 23017/0021 SLP315 T10351088 56005
CWPC - Port Colborne(Au, Ontario, Canada
Distance from station: WSW 33mi, 53km
Updated: 01/21/2020 8:00pm

 Wind from W
Wind: W 28 mph , 44 km/h
Temperature: 27°F , -3°C
Wind Chill: 11°F , -12°C
Dew Point: 19°F , -7°C
Humidity: 74%
2020/01/22 01:00 CWPC 220100Z AUTO 26024KT M03/M07 RMK AO1 PK WND 26027/0059 SLP316 T10271068 58005
 
CXVN - Vineland (au8), Ontario, Canada
Distance from station: W 36mi, 58km
Updated: 01/21/2020 8:00pm

 Wind from SW
Wind: SW 8 mph , 13 km/h
Temperature: 21°F , -6°C
Wind Chill: 11°F , -12°C
Dew Point: 12°F , -11°C
Humidity: 68%
2020/01/22 01:00 CXVN 220100Z AUTO 23007KT M06/M11 RMK AO1 SLP317 T10551107 56009
CYTZ - Toronto Il Vor, Ontario, Canada
Distance from station: NW 50mi, 81km
Updated: 01/21/2020 8:00pm
Clear
Clear
 Wind from WSW
Wind: WSW 18 mph , 30 km/h
Temperature: 25°F , -4°C
Wind Chill: 11°F , -12°C
Dew Point: 16°F , -9°C
Humidity: 69%
Barometer: 1030.5 hPa
Clouds: Clear
Visibility: 9 miles , 14 km
2020/01/22 01:00 CYTZ 220100Z AUTO 25016KT 9SM CLR M04/M09 A3043 RMK SLP312
 
CXTO - Toronto City, Ontario, Canada
Distance from station: NW 52mi, 84km
Updated: 01/21/2020 8:00pm

 
Temperature: 23°F , -5°C
Dew Point: 14°F , -10°C
Humidity: 68%
2020/01/22 01:00 CXTO 220100Z AUTO M05/M10 RMK AO1 SOG 14 5002 SLP311 T10471101
KDKK - Dunkirk, New York, USA
Distance from station: SW 52mi, 84km
Updated: 01/21/2020 7:53pm
Overcast
Overcast
 Wind from SW
Wind: SW 14 mph , 22 km/h
Temperature: 27°F , -3°C
Wind Chill: 16°F , -9°C
Dew Point: 18°F , -8°C
Humidity: 69%
Barometer: 1031.8 hPa
Clouds: Overcast
Visibility: 10 miles , 16 km
Cloud details: Overcast 2100 ft
2020/01/22 00:53 KDKK 220053Z AUTO 23012KT 10SM OVC021 M03/M08 A3047 RMK AO2 SLP328 T10331083
 
CYOO - Oshawa, Ontario, Canada
Distance from station: N 56mi, 90km
Updated: 01/21/2020 8:00pm
Few Clouds
Few Clouds
 Wind from WSW
Wind: WSW 8 mph , 13 km/h
Temperature: 23°F , -5°C
Wind Chill: 14°F , -10°C
Dew Point: 16°F , -9°C
Humidity: 74%
Barometer: 1029.5 hPa
Clouds: Few Clouds
Visibility: 9 miles , 14 km
Cloud details: Few Clouds 14000 ft
2020/01/22 01:00 CYOO 220100Z AUTO 25007KT 9SM FEW140 M05/M09 A3040 RMK SLP305
CWWB - Burlington Piers, Ontario, Canada
Distance from station: WNW 56mi, 91km
Updated: 01/21/2020 8:00pm

 Wind from WSW
Wind: WSW 12 mph , 19 km/h, Gust: 20 mph , 31 km/h
Temperature: 25°F , -4°C
Wind Chill: 14°F , -10°C
Dew Point: 16°F , -9°C
Humidity: 69%
2020/01/22 01:00 CWWB 220100Z AUTO 24010G17KT M04/M09 RMK AO1 PK WND 24018/0019 SLP311 T10381091 57008
 
CYYZ - Toronto/Pearson, Ontario, Canada
Distance from station: NW 60mi, 96km
Updated: 01/21/2020 8:00pm
Clear
Clear
 Wind from SSW
Wind: SSW 10 mph , 17 km/h, Gust: 18 mph , 30 km/h
Temperature: 21°F , -6°C
Wind Chill: 10°F , -12°C
Dew Point: 12°F , -11°C
Humidity: 68%
Barometer: 1029.8 hPa
Clouds: Clear
Visibility: 15 miles , 24 km
2020/01/22 01:00 CYYZ 220100Z 21009G16KT 15SM SKC M06/M11 A3041 RMK SLP309
CYKZ - Toronto Buttonvi, Ontario, Canada
Distance from station: NW 62mi, 99km
Updated: 01/03/2019 4:00am
NOT Current
Partly cloudy
Partly cloudy
 Wind from WSW
Wind: WSW 5 mph , 7 km/h
Temperature: 27°F , -3°C
Wind Chill: 21°F , -6°C
Dew Point: 23°F , -5°C
Humidity: 86%
Barometer: 1010.8 hPa
Clouds: Partly cloudy
Visibility: 15 miles , 24 km
Cloud details: Partly cloudy 4000 ft
2019/01/03 09:00 CYKZ 030900Z 25004KT 15SM SCT040 M03/M05 A2985 RMK SC3 LAST STFD OBS FAREWELL SLP118
 
CXHM - Hamilton Rbg Cs, Ontario, Canada
Distance from station: W 62mi, 100km
Updated: 01/21/2020 8:00pm

 Wind from W
Wind: W 5 mph , 7 km/h
2020/01/22 01:00 CXHM 220100Z AUTO 26004KT RMK AO1 58004
KDSV - Dansville, New York, USA
Distance from station: SE 62mi, 100km
Updated: 01/21/2020 7:54pm
Mostly cloudy
Mostly cloudy
 Wind from calm
Wind: Calm
Temperature: 25°F , -4°C
Dew Point: 14°F , -10°C
Humidity: 63%
Barometer: 1031.2 hPa
Clouds: Mostly cloudy
Visibility: 10 miles , 16 km
Cloud details: Mostly cloudy 2800 ft
2020/01/22 00:54 KDSV 220054Z AUTO 00000KT 10SM BKN028 M04/M10 A3045 RMK AO2 SLP331 T10441100
 
CYHM - Hamilton Airport, Ontario, Canada
Distance from station: W 63mi, 101km
Updated: 01/21/2020 8:00pm
Few Clouds
Few Clouds
 Wind from SW
Wind: SW 14 mph , 22 km/h
Temperature: 18°F , -8°C
Wind Chill: 4°F , -16°C
Dew Point: 12°F , -11°C
Humidity: 79%
Barometer: 1030.1 hPa
Clouds: Few Clouds
Visibility: 15 miles , 24 km
Cloud details: Few Clouds 25000 ft
2020/01/22 01:00 CYHM 220100Z 23012KT 15SM FEW250 M08/M11 A3042 RMK CI2 SLP316
CWNC - Cobourg (mars), Ontario, Canada
Distance from station: NNE 63mi, 102km
Updated: 01/21/2020 8:00pm

 Wind from WNW
Wind: WNW 9 mph , 15 km/h, Gust: 20 mph , 31 km/h
Temperature: 27°F , -3°C
Wind Chill: 18°F , -8°C
Dew Point: 19°F , -7°C
Humidity: 74%
2020/01/22 01:00 CWNC 220100Z AUTO 29008G17KT M03/M07 RMK AO1 SOG 13 5001 PK WND 25026/0020 SLP297 T10301071